createdAt,value
2023-02-22T00:01:28.203Z,27.47
2023-02-22T00:03:57.088Z,32.23
2023-02-22T00:06:31.263Z,34.10
2023-02-22T00:09:00.007Z,28.93
2023-02-22T00:11:28.943Z,25.80
2023-02-22T00:13:58.299Z,30.10
2023-02-22T00:16:27.322Z,32.13
2023-02-22T00:18:55.821Z,30.50
2023-02-22T00:21:24.395Z,26.90
2023-02-22T00:23:56.878Z,27.17
2023-02-22T00:26:26.889Z,32.10
2023-02-22T00:28:57.397Z,30.27
2023-02-22T00:31:26.101Z,29.40
2023-02-22T00:33:54.426Z,24.83
2023-02-22T00:36:23.531Z,29.13
2023-02-22T00:38:56.193Z,27.27
2023-02-22T00:41:25.717Z,30.27
2023-02-22T00:43:56.343Z,27.00
2023-02-22T00:46:24.172Z,33.73
2023-02-22T00:48:53.305Z,30.67
2023-02-22T00:51:22.600Z,26.47
2023-02-22T00:53:50.711Z,26.50
2023-02-22T00:56:20.282Z,27.37
2023-02-22T00:58:49.794Z,23.93
2023-02-22T01:01:18.720Z,28.00
2023-02-22T01:03:47.182Z,28.60
2023-02-22T01:06:15.362Z,25.03
2023-02-22T01:08:45.992Z,28.57
2023-02-22T01:11:17.865Z,27.43
2023-02-22T01:13:46.531Z,25.07
2023-02-22T01:16:16.385Z,27.33
2023-02-22T01:18:45.450Z,25.50
2023-02-22T01:21:16.717Z,30.27
2023-02-22T01:23:46.708Z,29.03
2023-02-22T01:26:14.977Z,27.87
2023-02-22T01:28:46.113Z,29.57
2023-02-22T01:31:19.137Z,28.13
2023-02-22T01:33:50.873Z,25.10
2023-02-22T01:36:19.430Z,23.40
2023-02-22T01:38:48.741Z,30.23
2023-02-22T01:41:18.444Z,25.13
2023-02-22T01:43:49.056Z,27.37
2023-02-22T01:46:26.022Z,23.67
2023-02-22T01:49:00.674Z,26.57
2023-02-22T01:51:32.340Z,27.17
2023-02-22T01:54:03.921Z,27.30
2023-02-22T01:56:37.593Z,21.67
2023-02-22T01:59:10.053Z,29.67
2023-02-22T02:02:00.739Z,22.93
2023-02-22T02:04:29.971Z,23.10
2023-02-22T02:07:03.892Z,25.90
2023-02-22T02:10:01.371Z,28.43
2023-02-22T02:12:33.424Z,27.17
2023-02-22T02:15:18.197Z,25.43
2023-02-22T02:17:47.974Z,27.50
2023-02-22T02:20:25.617Z,30.57
2023-02-22T02:23:01.163Z,28.70
2023-02-22T02:26:08.910Z,34.73
2023-02-22T02:29:03.193Z,30.57
2023-02-22T02:32:08.033Z,29.93
2023-02-22T02:34:48.541Z,26.53
2023-02-22T02:37:23.585Z,24.47
2023-02-22T02:39:57.436Z,24.83
2023-02-22T02:42:32.342Z,24.27
2023-02-22T02:45:13.875Z,24.40
2023-02-22T02:47:46.488Z,27.27
2023-02-22T02:50:27.751Z,45.90
2023-02-22T02:52:59.074Z,35.47
2023-02-22T02:55:32.055Z,42.33
2023-02-22T02:58:00.512Z,34.57
2023-02-22T03:00:39.272Z,37.00
2023-02-22T03:03:26.204Z,37.50
2023-02-22T03:06:26.562Z,32.77
2023-02-22T03:09:00.210Z,27.30
2023-02-22T03:11:31.681Z,27.73
2023-02-22T03:14:10.190Z,29.60
2023-02-22T03:16:48.180Z,23.77
2023-02-22T03:19:23.948Z,32.40
2023-02-22T03:22:02.733Z,27.47
2023-02-22T03:24:36.664Z,28.40
2023-02-22T03:27:09.479Z,26.00
2023-02-22T03:29:43.252Z,28.00
2023-02-22T03:32:17.693Z,22.37
2023-02-22T03:34:52.942Z,26.63
2023-02-22T03:37:27.028Z,27.57
2023-02-22T03:39:56.611Z,21.70
2023-02-22T03:42:32.990Z,22.23
2023-02-22T03:45:05.665Z,22.30
2023-02-22T03:47:42.126Z,21.67
2023-02-22T03:50:15.252Z,27.17
2023-02-22T03:52:48.349Z,27.97
2023-02-22T03:55:20.984Z,25.87
2023-02-22T03:57:56.225Z,23.97
2023-02-22T04:00:28.191Z,24.13
2023-02-22T04:02:56.759Z,26.00
2023-02-22T04:05:28.505Z,23.07
2023-02-22T04:08:02.473Z,26.60
2023-02-22T04:10:31.318Z,22.23
2023-02-22T04:12:59.684Z,25.53
2023-02-22T04:15:35.652Z,23.73
2023-02-22T04:18:04.584Z,21.43
2023-02-22T04:20:32.877Z,19.70
2023-02-22T04:23:05.173Z,18.63
2023-02-22T04:25:33.590Z,23.83
2023-02-22T04:28:03.806Z,23.67
2023-02-22T04:30:32.607Z,23.63
2023-02-22T04:33:00.906Z,20.60
2023-02-22T04:35:35.319Z,21.33
2023-02-22T04:38:05.232Z,23.70
2023-02-22T04:40:33.865Z,26.63
2023-02-22T04:43:05.781Z,22.83
2023-02-22T04:45:48.760Z,25.90
2023-02-22T04:48:16.966Z,20.73
2023-02-22T04:50:45.457Z,23.60
2023-02-22T04:53:15.107Z,19.73
2023-02-22T04:55:46.337Z,24.37
2023-02-22T04:58:16.216Z,23.27
2023-02-22T05:00:48.159Z,20.23
2023-02-22T05:03:20.463Z,20.10
2023-02-22T05:05:53.281Z,24.23
2023-02-22T05:08:25.171Z,26.90
2023-02-22T05:10:53.353Z,22.70
2023-02-22T05:13:21.833Z,22.80
2023-02-22T05:15:50.221Z,23.33
2023-02-22T05:18:22.074Z,19.70
2023-02-22T05:20:51.215Z,23.50
2023-02-22T05:23:19.546Z,21.13
2023-02-22T05:25:52.662Z,26.30
2023-02-22T05:28:23.444Z,23.83
2023-02-22T05:30:51.743Z,27.03
2023-02-22T05:33:20.616Z,22.33
2023-02-22T05:35:49.807Z,21.83
2023-02-22T05:38:21.803Z,26.60
2023-02-22T05:40:55.399Z,23.63
2023-02-22T05:43:24.653Z,19.93
2023-02-22T05:45:56.109Z,23.47
2023-02-22T05:48:27.101Z,23.63
2023-02-22T05:50:58.729Z,24.70
2023-02-22T05:53:28.634Z,25.80
2023-02-22T05:55:58.962Z,27.20
2023-02-22T05:58:28.518Z,20.97
2023-02-22T06:01:03.063Z,23.97
2023-02-22T06:03:33.249Z,21.63
2023-02-22T06:06:01.564Z,23.13
2023-02-22T06:08:29.924Z,20.77
2023-02-22T06:10:59.420Z,21.67
2023-02-22T06:13:30.108Z,22.90
2023-02-22T06:16:00.168Z,28.63
2023-02-22T06:18:32.008Z,30.87
2023-02-22T06:21:01.125Z,26.40
2023-02-22T06:23:32.562Z,28.13
2023-02-22T06:26:02.260Z,23.00
2023-02-22T06:28:31.770Z,25.53
2023-02-22T06:31:01.324Z,20.30
2023-02-22T06:33:33.708Z,23.73
2023-02-22T06:36:03.906Z,28.13
2023-02-22T06:38:34.929Z,23.60
2023-02-22T06:41:08.499Z,24.53
2023-02-22T06:43:36.284Z,23.50
2023-02-22T06:46:06.048Z,24.23
2023-02-22T06:48:34.379Z,26.23
2023-02-22T06:51:03.079Z,22.30
2023-02-22T06:53:31.700Z,21.63
2023-02-22T06:56:01.406Z,22.77
2023-02-22T06:58:34.277Z,21.20
2023-02-22T07:01:04.080Z,24.47
2023-02-22T07:03:34.933Z,23.30
2023-02-22T07:06:05.345Z,23.60
2023-02-22T07:08:36.216Z,23.93
2023-02-22T07:11:06.548Z,27.57
2023-02-22T07:13:41.523Z,24.30
2023-02-22T07:16:14.475Z,24.47
2023-02-22T07:18:42.681Z,21.07
2023-02-22T07:21:12.108Z,19.37
2023-02-22T07:23:42.138Z,20.30
2023-02-22T07:26:13.485Z,22.20
2023-02-22T07:28:43.028Z,19.77
2023-02-22T07:31:21.292Z,21.47
2023-02-22T07:33:52.211Z,20.07
2023-02-22T07:36:20.983Z,21.00
2023-02-22T07:38:51.066Z,19.03
2023-02-22T07:41:23.003Z,21.37
2023-02-22T07:43:53.756Z,17.43
2023-02-22T07:46:27.093Z,15.13
2023-02-22T07:48:55.846Z,15.57
2023-02-22T07:51:29.704Z,16.53
2023-02-22T07:53:59.372Z,15.33
2023-02-22T07:56:37.345Z,18.20
2023-02-22T07:59:18.675Z,15.17
2023-02-22T08:01:47.059Z,18.03
2023-02-22T08:04:16.285Z,16.60
2023-02-22T08:06:47.173Z,18.47
2023-02-22T08:09:15.036Z,18.27
2023-02-22T08:11:43.548Z,16.40
2023-02-22T08:14:12.879Z,16.70
2023-02-22T08:16:41.312Z,19.83
2023-02-22T08:19:10.199Z,23.17
2023-02-22T08:21:39.342Z,23.83
2023-02-22T08:24:07.829Z,25.57
2023-02-22T08:26:37.466Z,25.10
2023-02-22T08:29:07.537Z,24.07
2023-02-22T08:31:39.955Z,21.03
2023-02-22T08:34:08.304Z,22.87
2023-02-22T08:36:39.101Z,17.20
2023-02-22T08:39:06.984Z,19.80
2023-02-22T08:41:37.315Z,21.57
2023-02-22T08:44:08.254Z,21.30
2023-02-22T08:46:36.825Z,24.63
2023-02-22T08:49:08.944Z,18.90
2023-02-22T08:51:38.658Z,18.30
2023-02-22T08:54:10.283Z,20.30
2023-02-22T08:56:49.783Z,19.63
2023-02-22T08:59:19.518Z,22.30
2023-02-22T09:01:51.984Z,23.97
2023-02-22T09:04:23.908Z,32.37
2023-02-22T09:06:53.233Z,34.40
2023-02-22T09:09:24.168Z,31.13
2023-02-22T09:11:55.386Z,25.80
2023-02-22T09:14:24.658Z,40.80
2023-02-22T09:16:53.032Z,45.20
2023-02-22T09:19:24.530Z,39.90
2023-02-22T09:21:56.693Z,38.37
2023-02-22T09:24:26.147Z,37.33
2023-02-22T09:26:56.379Z,32.30
2023-02-22T09:29:28.600Z,34.30
2023-02-22T09:31:58.970Z,27.87
2023-02-22T09:34:30.409Z,25.93
2023-02-22T09:36:58.596Z,24.13
2023-02-22T09:39:29.283Z,26.97
2023-02-22T09:42:04.707Z,27.27
2023-02-22T09:44:42.341Z,25.27
2023-02-22T09:47:20.491Z,28.40
2023-02-22T09:50:04.685Z,29.70
2023-02-22T09:52:37.641Z,24.63
2023-02-22T09:55:11.287Z,24.87
2023-02-22T09:57:44.033Z,25.00
2023-02-22T10:00:20.939Z,29.50
2023-02-22T10:03:00.794Z,26.03
2023-02-22T10:05:37.600Z,26.60
2023-02-22T10:08:12.675Z,28.17
2023-02-22T10:10:46.231Z,26.83
2023-02-22T10:13:27.741Z,30.13
2023-02-22T10:16:01.503Z,31.87
2023-02-22T10:19:08.557Z,29.07
2023-02-22T10:21:57.840Z,27.53
2023-02-22T10:24:40.916Z,30.67
2023-02-22T10:27:22.300Z,24.97
2023-02-22T10:29:55.181Z,28.50
2023-02-22T10:32:31.383Z,26.57
2023-02-22T10:35:07.585Z,27.10
2023-02-22T10:37:38.660Z,30.07
2023-02-22T10:40:17.417Z,29.60
2023-02-22T10:42:46.985Z,29.27
2023-02-22T10:45:23.172Z,29.77
2023-02-22T10:47:55.617Z,34.13
2023-02-22T10:50:23.888Z,25.00
2023-02-22T10:52:59.388Z,27.83
2023-02-22T10:55:29.171Z,25.10
2023-02-22T10:58:04.827Z,29.70
2023-02-22T11:00:37.565Z,27.77
2023-02-22T11:03:21.119Z,25.50
2023-02-22T11:05:50.314Z,24.17
2023-02-22T11:08:26.863Z,27.00
2023-02-22T11:10:57.516Z,25.67
2023-02-22T11:13:28.408Z,26.20
2023-02-22T11:15:59.508Z,24.47
2023-02-22T11:18:34.116Z,27.33
2023-02-22T11:21:06.451Z,27.93
2023-02-22T11:23:37.796Z,30.87
2023-02-22T11:26:11.188Z,28.00
2023-02-22T11:28:49.277Z,28.47
2023-02-22T11:31:22.518Z,26.57
2023-02-22T11:36:38.277Z,26.37
2023-02-22T11:39:25.531Z,24.93
2023-02-22T11:41:56.515Z,30.23
2023-02-22T11:44:34.881Z,25.87
2023-02-22T11:47:07.042Z,23.23
2023-02-22T11:49:38.188Z,27.73
2023-02-22T11:52:17.981Z,23.17
2023-02-22T11:55:32.641Z,25.70
2023-02-22T11:58:29.964Z,24.73
2023-02-22T12:01:07.414Z,25.20
2023-02-22T12:04:25.423Z,24.17
2023-02-22T12:07:08.666Z,26.00
2023-02-22T12:09:43.708Z,24.83
2023-02-22T12:12:28.946Z,25.13
2023-02-22T12:15:06.465Z,23.37
2023-02-22T12:17:59.265Z,23.83
2023-02-22T12:20:41.938Z,25.37
2023-02-22T12:23:20.127Z,19.53
2023-02-22T12:25:59.436Z,19.90
2023-02-22T12:28:39.003Z,22.30
2023-02-22T12:31:23.013Z,20.17
2023-02-22T12:34:03.245Z,21.50
2023-02-22T12:36:42.780Z,19.27
2023-02-22T12:39:29.976Z,20.73
2023-02-22T12:42:03.582Z,22.37
2023-02-22T12:44:38.307Z,19.70
2023-02-22T12:47:10.112Z,20.97
2023-02-22T12:49:44.918Z,22.30
2023-02-22T12:52:22.653Z,21.20
2023-02-22T12:55:00.275Z,21.43
2023-02-22T12:57:39.668Z,19.93
2023-02-22T13:00:20.183Z,20.57
2023-02-22T13:02:58.954Z,23.17
2023-02-22T13:05:29.074Z,23.23
2023-02-22T13:08:13.443Z,18.63
2023-02-22T13:11:08.919Z,19.13
2023-02-22T13:13:44.618Z,19.37
2023-02-22T13:16:33.339Z,23.97
2023-02-22T13:19:09.583Z,20.73
2023-02-22T13:21:50.078Z,23.03
2023-02-22T13:24:25.099Z,19.93
2023-02-22T13:26:58.618Z,19.87
2023-02-22T13:29:33.162Z,18.23
2023-02-22T13:32:20.142Z,14.50
2023-02-22T13:35:03.243Z,14.97
2023-02-22T13:38:02.174Z,15.20
2023-02-22T13:41:04.565Z,19.20
2023-02-22T13:44:04.197Z,15.47
2023-02-22T13:47:02.756Z,20.57
2023-02-22T13:49:52.409Z,16.03
2023-02-22T13:52:23.404Z,15.43
2023-02-22T13:54:57.330Z,19.73
2023-02-22T13:57:29.312Z,14.83
2023-02-22T14:00:23.101Z,17.70
2023-02-22T14:03:06.722Z,16.70
2023-02-22T14:05:49.979Z,15.37
2023-02-22T14:08:42.022Z,14.00
2023-02-22T14:11:54.589Z,12.60
2023-02-22T14:14:24.122Z,14.33
2023-02-22T14:17:28.092Z,12.60
2023-02-22T14:20:32.333Z,14.20
2023-02-22T14:23:36.511Z,14.60
2023-02-22T14:26:15.483Z,15.77
2023-02-22T14:28:52.365Z,16.33
2023-02-22T14:31:35.483Z,13.70
2023-02-22T14:34:10.817Z,17.50
2023-02-22T14:36:50.907Z,16.20
2023-02-22T14:39:29.453Z,15.87
2023-02-22T14:42:01.771Z,12.43
2023-02-22T14:44:35.851Z,13.07
2023-02-22T14:47:08.329Z,14.13
2023-02-22T14:49:41.611Z,13.03
2023-02-22T14:52:20.539Z,14.90
2023-02-22T14:55:06.892Z,16.07
2023-02-22T14:57:45.120Z,13.23
2023-02-22T15:00:22.680Z,16.03
2023-02-22T15:02:57.532Z,12.73
2023-02-22T15:08:18.007Z,12.83
2023-02-22T15:10:49.689Z,12.53
2023-02-22T15:13:24.412Z,16.43
2023-02-22T15:16:02.116Z,13.90
2023-02-22T15:18:39.555Z,14.27
2023-02-22T15:21:13.233Z,21.13
2023-02-22T15:23:49.845Z,16.87
2023-02-22T15:26:26.975Z,20.87
2023-02-22T15:28:56.579Z,22.33
2023-02-22T15:31:33.666Z,17.63
2023-02-22T15:34:24.493Z,17.73
2023-02-22T15:36:56.456Z,19.37
2023-02-22T15:39:27.349Z,20.70
2023-02-22T15:42:25.051Z,17.83
2023-02-22T15:44:58.099Z,18.83
2023-02-22T15:47:32.088Z,17.20
2023-02-22T15:50:22.334Z,16.70
2023-02-22T15:53:03.685Z,25.90
2023-02-22T15:55:35.549Z,18.87
2023-02-22T15:58:24.197Z,16.90
2023-02-22T16:01:02.675Z,18.40
2023-02-22T16:03:44.235Z,16.07
2023-02-22T16:06:18.683Z,21.53
2023-02-22T16:08:55.227Z,19.73
2023-02-22T16:11:31.212Z,19.33
2023-02-22T16:14:05.010Z,18.67
2023-02-22T16:16:41.943Z,19.03
2023-02-22T16:19:28.896Z,20.13
2023-02-22T16:22:04.670Z,21.50
2023-02-22T16:24:35.816Z,21.87
2023-02-22T16:27:22.586Z,23.20
2023-02-22T16:30:33.376Z,23.83
2023-02-22T16:33:06.612Z,26.77
2023-02-22T16:35:37.901Z,25.60
2023-02-22T16:38:09.364Z,31.90
2023-02-22T16:40:44.784Z,26.17
2023-02-22T16:43:16.627Z,23.60
2023-02-22T16:45:46.817Z,25.93
2023-02-22T16:48:18.302Z,29.47
2023-02-22T16:50:51.224Z,23.73
2023-02-22T16:53:22.384Z,26.50
2023-02-22T16:56:00.056Z,25.03
2023-02-22T16:58:32.449Z,28.40
2023-02-22T17:01:05.122Z,28.97
2023-02-22T17:03:35.803Z,22.10
2023-02-22T17:06:06.665Z,27.13
2023-02-22T17:08:36.761Z,28.40
2023-02-22T17:11:08.724Z,28.07
2023-02-22T17:13:37.501Z,29.63
2023-02-22T17:16:08.818Z,27.37
2023-02-22T17:18:39.257Z,28.83
2023-02-22T17:21:08.423Z,28.60
2023-02-22T17:23:38.827Z,27.07
2023-02-22T17:26:07.942Z,28.77
2023-02-22T17:28:36.077Z,26.60
2023-02-22T17:31:11.771Z,30.23
2023-02-22T17:33:41.453Z,29.90
2023-02-22T17:36:17.317Z,28.43
2023-02-22T17:38:47.004Z,26.87
2023-02-22T17:41:14.991Z,34.93
2023-02-22T17:43:42.925Z,26.63
2023-02-22T17:46:12.566Z,29.87
2023-02-22T17:48:43.547Z,28.40
2023-02-22T17:51:13.128Z,28.53
2023-02-22T17:53:42.124Z,29.30
2023-02-22T17:56:16.260Z,26.97
2023-02-22T17:58:44.425Z,30.10
2023-02-22T18:01:21.782Z,31.03
2023-02-22T18:03:54.734Z,29.17
2023-02-22T18:06:27.080Z,31.10
2023-02-22T18:08:56.917Z,31.87
2023-02-22T18:11:26.666Z,30.70
2023-02-22T18:13:55.158Z,29.97
2023-02-22T18:16:27.004Z,32.13
2023-02-22T18:19:03.361Z,27.77
2023-02-22T18:21:35.198Z,31.93
2023-02-22T18:24:04.182Z,34.57
2023-02-22T18:26:34.576Z,34.77
2023-02-22T18:29:19.605Z,30.23
2023-02-22T18:31:50.194Z,37.87
2023-02-22T18:34:25.251Z,38.70
2023-02-22T18:36:53.879Z,30.90
2023-02-22T18:39:22.346Z,33.77
2023-02-22T18:41:54.542Z,40.87
2023-02-22T18:44:23.901Z,41.57
2023-02-22T18:46:53.814Z,36.37
2023-02-22T18:49:27.166Z,49.27
2023-02-22T18:51:56.063Z,35.87
2023-02-22T18:54:28.039Z,56.80
2023-02-22T18:56:56.817Z,41.33
2023-02-22T18:59:25.212Z,36.37
2023-02-22T19:01:53.554Z,37.67
2023-02-22T19:04:22.901Z,44.93
2023-02-22T19:06:51.055Z,46.87
2023-02-22T19:09:19.279Z,47.30
2023-02-22T19:11:53.309Z,46.80
2023-02-22T19:14:24.166Z,45.27
2023-02-22T19:16:56.630Z,42.57
2023-02-22T19:19:27.594Z,46.00
2023-02-22T19:21:56.729Z,39.87
2023-02-22T19:24:31.194Z,41.67
2023-02-22T19:27:07.581Z,38.37
2023-02-22T19:29:38.720Z,38.87
2023-02-22T19:32:07.195Z,36.33
2023-02-22T19:34:37.821Z,36.03
2023-02-22T19:37:12.535Z,32.73
2023-02-22T19:39:42.261Z,34.43
2023-02-22T19:42:11.271Z,35.70
2023-02-22T19:44:39.247Z,36.90
2023-02-22T19:47:10.500Z,36.40
2023-02-22T19:49:42.275Z,44.97
2023-02-22T19:52:10.651Z,42.00
2023-02-22T19:54:41.051Z,47.17
2023-02-22T19:57:09.878Z,39.90
2023-02-22T19:59:39.032Z,37.00
2023-02-22T20:02:15.205Z,39.23
2023-02-22T20:04:44.803Z,41.40
2023-02-22T20:07:14.423Z,43.40
2023-02-22T20:09:44.779Z,34.57
2023-02-22T20:12:15.878Z,41.20
2023-02-22T20:14:46.197Z,38.57
2023-02-22T20:17:15.207Z,42.17
2023-02-22T20:19:49.139Z,37.60
2023-02-22T20:22:20.585Z,44.00
2023-02-22T20:24:50.096Z,41.50
2023-02-22T20:27:22.426Z,48.47
2023-02-22T20:29:51.018Z,48.37
2023-02-22T20:32:20.705Z,39.77
2023-02-22T20:34:57.912Z,44.93
2023-02-22T20:37:26.235Z,43.43
2023-02-22T20:40:00.614Z,45.13
2023-02-22T20:42:28.875Z,42.50
2023-02-22T20:45:12.273Z,42.47
2023-02-22T20:47:43.347Z,45.80
2023-02-22T20:50:15.266Z,38.30
2023-02-22T20:52:45.006Z,41.50
2023-02-22T20:55:15.054Z,38.30
2023-02-22T20:57:45.730Z,37.93
2023-02-22T21:00:17.972Z,38.27
2023-02-22T21:02:46.820Z,38.33
2023-02-22T21:05:20.069Z,39.93
2023-02-22T21:07:47.999Z,36.93
2023-02-22T21:10:20.934Z,37.80
2023-02-22T21:12:52.248Z,35.80
2023-02-22T21:15:26.284Z,42.73
2023-02-22T21:17:56.167Z,33.83
2023-02-22T21:20:26.321Z,37.87
2023-02-22T21:22:55.823Z,37.53
2023-02-22T21:25:29.628Z,30.60
2023-02-22T21:27:57.869Z,34.80
2023-02-22T21:30:25.889Z,35.87
2023-02-22T21:32:56.271Z,30.67
2023-02-22T21:35:29.551Z,36.17
2023-02-22T21:37:59.406Z,35.30
2023-02-22T21:40:28.293Z,33.83
2023-02-22T21:42:57.008Z,31.73
2023-02-22T21:45:27.230Z,30.57
2023-02-22T21:47:57.476Z,31.97
2023-02-22T21:50:30.183Z,32.33
2023-02-22T21:53:00.144Z,33.20
2023-02-22T21:55:30.147Z,30.47
2023-02-22T21:57:58.257Z,31.50
2023-02-22T22:00:31.338Z,29.63
2023-02-22T22:03:07.866Z,32.70
2023-02-22T22:05:39.939Z,35.70
2023-02-22T22:08:08.338Z,32.57
2023-02-22T22:10:37.731Z,31.27
2023-02-22T22:13:09.097Z,29.50
2023-02-22T22:15:41.210Z,29.30
2023-02-22T22:18:09.579Z,31.90
2023-02-22T22:20:40.545Z,30.73
2023-02-22T22:23:09.807Z,32.60
2023-02-22T22:25:39.118Z,32.30
2023-02-22T22:28:16.630Z,30.83
2023-02-22T22:30:45.197Z,31.43
2023-02-22T22:33:17.895Z,33.17
2023-02-22T22:35:49.315Z,32.20
2023-02-22T22:38:39.140Z,29.93
2023-02-22T22:41:07.702Z,31.63
2023-02-22T22:43:38.615Z,34.20
2023-02-22T22:46:10.344Z,29.03
2023-02-22T22:48:40.910Z,31.13
2023-02-22T22:51:17.204Z,37.67
2023-02-22T22:53:49.257Z,31.73
2023-02-22T22:56:20.255Z,35.23
2023-02-22T22:58:52.153Z,32.20
2023-02-22T23:01:29.942Z,29.47
2023-02-22T23:04:02.303Z,28.93
2023-02-22T23:06:35.207Z,28.70
2023-02-22T23:09:11.104Z,30.60
2023-02-22T23:11:44.187Z,33.07
2023-02-22T23:14:14.908Z,30.10
2023-02-22T23:16:45.341Z,33.93
2023-02-22T23:19:15.735Z,30.60
2023-02-22T23:21:45.732Z,33.53
2023-02-22T23:24:16.653Z,32.90
2023-02-22T23:26:48.971Z,31.37
2023-02-22T23:29:23.381Z,35.30
2023-02-22T23:31:58.027Z,35.13
2023-02-22T23:34:30.495Z,36.67
2023-02-22T23:36:59.637Z,32.23
2023-02-22T23:39:36.183Z,31.40
2023-02-22T23:42:09.296Z,30.27
2023-02-22T23:44:39.739Z,33.60
2023-02-22T23:47:09.682Z,32.13
2023-02-22T23:49:38.491Z,33.47
2023-02-22T23:52:23.875Z,35.17
2023-02-22T23:54:53.777Z,33.00
2023-02-22T23:57:21.923Z,33.43
2023-02-22T23:59:53.329Z,32.13
